sensor_id;sensor_type;location;lat;lon;timestamp;pressure;altitude;pressure_sealevel;temperature;humidity
38400;BME280;24180;42.676;23.320;2023-07-24T00:01:41;95305.47;;;21.62;nan
38400;BME280;24180;42.676;23.320;2023-07-24T00:04:07;95290.66;;;21.53;nan
38400;BME280;24180;42.676;23.320;2023-07-24T00:06:32;95282.28;;;21.34;nan
38400;BME280;24180;42.676;23.320;2023-07-24T00:08:58;95249.13;;;21.09;nan
38400;BME280;24180;42.676;23.320;2023-07-24T00:11:23;95284.94;;;21.34;nan
38400;BME280;24180;42.676;23.320;2023-07-24T00:13:48;95273.22;;;21.29;nan
38400;BME280;24180;42.676;23.320;2023-07-24T00:16:14;95258.34;;;21.13;nan
38400;BME280;24180;42.676;23.320;2023-07-24T00:18:39;95284.28;;;21.32;nan
38400;BME280;24180;42.676;23.320;2023-07-24T00:21:06;95267.50;;;21.25;nan
38400;BME280;24180;42.676;23.320;2023-07-24T00:23:31;95278.72;;;21.13;nan
38400;BME280;24180;42.676;23.320;2023-07-24T00:25:57;95295.16;;;21.23;nan
38400;BME280;24180;42.676;23.320;2023-07-24T00:28:22;95271.97;;;21.10;nan
38400;BME280;24180;42.676;23.320;2023-07-24T00:30:48;95276.88;;;21.13;nan
38400;BME280;24180;42.676;23.320;2023-07-24T00:33:13;95288.59;;;21.19;nan
38400;BME280;24180;42.676;23.320;2023-07-24T00:35:38;95270.28;;;21.09;nan
38400;BME280;24180;42.676;23.320;2023-07-24T00:38:04;95264.47;;;20.99;nan
38400;BME280;24180;42.676;23.320;2023-07-24T00:40:29;95292.78;;;21.13;nan
38400;BME280;24180;42.676;23.320;2023-07-24T00:42:55;95267.19;;;20.91;nan
38400;BME280;24180;42.676;23.320;2023-07-24T00:45:22;95292.25;;;21.03;nan
38400;BME280;24180;42.676;23.320;2023-07-24T00:47:48;95295.97;;;20.94;nan
38400;BME280;24180;42.676;23.320;2023-07-24T00:50:13;95287.19;;;20.93;nan
38400;BME280;24180;42.676;23.320;2023-07-24T00:52:39;95284.25;;;20.88;nan
38400;BME280;24180;42.676;23.320;2023-07-24T00:55:06;95306.59;;;20.71;nan
38400;BME280;24180;42.676;23.320;2023-07-24T00:57:32;95266.31;;;20.61;nan
38400;BME280;24180;42.676;23.320;2023-07-24T00:59:59;95266.84;;;20.56;nan
38400;BME280;24180;42.676;23.320;2023-07-24T01:02:25;95259.63;;;20.50;nan
38400;BME280;24180;42.676;23.320;2023-07-24T01:04:50;95279.06;;;20.57;nan
38400;BME280;24180;42.676;23.320;2023-07-24T01:07:16;95274.25;;;20.61;nan
38400;BME280;24180;42.676;23.320;2023-07-24T01:09:42;95250.41;;;20.46;nan
38400;BME280;24180;42.676;23.320;2023-07-24T01:12:15;95236.06;;;20.40;nan
38400;BME280;24180;42.676;23.320;2023-07-24T01:14:58;95269.41;;;20.64;nan
38400;BME280;24180;42.676;23.320;2023-07-24T01:17:29;95260.28;;;20.52;nan
38400;BME280;24180;42.676;23.320;2023-07-24T01:19:58;95279.59;;;20.52;nan
38400;BME280;24180;42.676;23.320;2023-07-24T01:22:25;95265.66;;;20.44;nan
38400;BME280;24180;42.676;23.320;2023-07-24T01:27:32;95261.22;;;20.36;nan
38400;BME280;24180;42.676;23.320;2023-07-24T01:29:57;95271.56;;;20.46;nan
38400;BME280;24180;42.676;23.320;2023-07-24T01:32:23;95251.78;;;20.42;nan
38400;BME280;24180;42.676;23.320;2023-07-24T01:34:51;95247.72;;;20.31;nan
38400;BME280;24180;42.676;23.320;2023-07-24T01:37:18;95240.16;;;20.43;nan
38400;BME280;24180;42.676;23.320;2023-07-24T01:39:45;95250.75;;;20.43;nan
38400;BME280;24180;42.676;23.320;2023-07-24T01:42:12;95259.72;;;20.42;nan
38400;BME280;24180;42.676;23.320;2023-07-24T01:44:38;95255.84;;;20.29;nan
38400;BME280;24180;42.676;23.320;2023-07-24T01:47:03;95273.00;;;20.34;nan
38400;BME280;24180;42.676;23.320;2023-07-24T01:49:29;95289.34;;;20.37;nan
38400;BME280;24180;42.676;23.320;2023-07-24T01:51:54;95272.59;;;20.22;nan
38400;BME280;24180;42.676;23.320;2023-07-24T01:54:20;95272.94;;;20.19;nan
38400;BME280;24180;42.676;23.320;2023-07-24T01:56:45;95264.47;;;20.23;nan
38400;BME280;24180;42.676;23.320;2023-07-24T01:59:10;95282.75;;;20.33;nan
38400;BME280;24180;42.676;23.320;2023-07-24T02:01:36;95270.75;;;20.22;nan
38400;BME280;24180;42.676;23.320;2023-07-24T02:04:02;95269.41;;;20.26;nan
38400;BME280;24180;42.676;23.320;2023-07-24T02:06:27;95266.34;;;20.15;nan
38400;BME280;24180;42.676;23.320;2023-07-24T02:08:53;95281.94;;;20.33;nan
38400;BME280;24180;42.676;23.320;2023-07-24T02:11:18;95283.00;;;20.23;nan
38400;BME280;24180;42.676;23.320;2023-07-24T02:13:44;95268.63;;;20.26;nan
38400;BME280;24180;42.676;23.320;2023-07-24T02:16:11;95273.38;;;20.22;nan
38400;BME280;24180;42.676;23.320;2023-07-24T02:18:38;95261.84;;;20.23;nan
38400;BME280;24180;42.676;23.320;2023-07-24T02:21:03;95276.66;;;20.33;nan
38400;BME280;24180;42.676;23.320;2023-07-24T02:23:29;95270.88;;;20.29;nan
38400;BME280;24180;42.676;23.320;2023-07-24T02:25:54;95274.44;;;20.21;nan
38400;BME280;24180;42.676;23.320;2023-07-24T02:28:20;95268.47;;;20.19;nan
38400;BME280;24180;42.676;23.320;2023-07-24T02:30:47;95247.28;;;20.04;nan
38400;BME280;24180;42.676;23.320;2023-07-24T02:33:12;95267.53;;;20.12;nan
38400;BME280;24180;42.676;23.320;2023-07-24T02:35:39;95256.19;;;20.03;nan
38400;BME280;24180;42.676;23.320;2023-07-24T02:38:05;95253.25;;;19.98;nan
38400;BME280;24180;42.676;23.320;2023-07-24T02:40:30;95265.38;;;19.93;nan
38400;BME280;24180;42.676;23.320;2023-07-24T02:42:56;95251.88;;;19.88;nan
38400;BME280;24180;42.676;23.320;2023-07-24T02:45:21;95257.75;;;19.98;nan
38400;BME280;24180;42.676;23.320;2023-07-24T02:47:46;95263.44;;;20.10;nan
38400;BME280;24180;42.676;23.320;2023-07-24T02:50:12;95250.97;;;19.95;nan
38400;BME280;24180;42.676;23.320;2023-07-24T02:52:37;95267.91;;;20.09;nan
38400;BME280;24180;42.676;23.320;2023-07-24T02:55:03;95274.53;;;20.05;nan
38400;BME280;24180;42.676;23.320;2023-07-24T02:57:28;95256.50;;;20.09;nan
38400;BME280;24180;42.676;23.320;2023-07-24T02:59:54;95266.25;;;20.08;nan
38400;BME280;24180;42.676;23.320;2023-07-24T03:02:19;95269.19;;;20.13;nan
38400;BME280;24180;42.676;23.320;2023-07-24T03:04:44;95260.50;;;20.04;nan
38400;BME280;24180;42.676;23.320;2023-07-24T03:07:10;95242.94;;;19.89;nan
38400;BME280;24180;42.676;23.320;2023-07-24T03:09:35;95255.75;;;20.00;nan
38400;BME280;24180;42.676;23.320;2023-07-24T03:12:01;95255.91;;;19.98;nan
38400;BME280;24180;42.676;23.320;2023-07-24T03:14:26;95243.34;;;19.77;nan
38400;BME280;24180;42.676;23.320;2023-07-24T03:16:51;95240.31;;;19.58;nan
38400;BME280;24180;42.676;23.320;2023-07-24T03:19:17;95223.38;;;19.52;nan
38400;BME280;24180;42.676;23.320;2023-07-24T03:21:45;95261.50;;;19.81;nan
38400;BME280;24180;42.676;23.320;2023-07-24T03:24:10;95202.66;;;19.41;nan
38400;BME280;24180;42.676;23.320;2023-07-24T03:26:35;95258.53;;;19.75;nan
38400;BME280;24180;42.676;23.320;2023-07-24T03:29:01;95263.00;;;19.75;nan
38400;BME280;24180;42.676;23.320;2023-07-24T03:31:26;95267.47;;;19.74;nan
38400;BME280;24180;42.676;23.320;2023-07-24T03:33:52;95224.34;;;19.51;nan
38400;BME280;24180;42.676;23.320;2023-07-24T03:36:17;95245.59;;;19.58;nan
38400;BME280;24180;42.676;23.320;2023-07-24T03:38:42;95238.50;;;19.58;nan
38400;BME280;24180;42.676;23.320;2023-07-24T03:41:08;95273.25;;;19.70;nan
38400;BME280;24180;42.676;23.320;2023-07-24T03:43:33;95245.78;;;19.56;nan
38400;BME280;24180;42.676;23.320;2023-07-24T03:45:59;95234.25;;;19.57;nan
38400;BME280;24180;42.676;23.320;2023-07-24T03:48:24;95254.31;;;19.66;nan
38400;BME280;24180;42.676;23.320;2023-07-24T03:50:53;95240.69;;;19.55;nan
38400;BME280;24180;42.676;23.320;2023-07-24T03:53:22;95273.44;;;19.68;nan
38400;BME280;24180;42.676;23.320;2023-07-24T03:55:48;95272.09;;;19.72;nan
38400;BME280;24180;42.676;23.320;2023-07-24T03:58:13;95255.38;;;19.57;nan
38400;BME280;24180;42.676;23.320;2023-07-24T04:00:38;95268.50;;;19.73;nan
38400;BME280;24180;42.676;23.320;2023-07-24T04:03:04;95259.91;;;19.71;nan
38400;BME280;24180;42.676;23.320;2023-07-24T04:05:29;95261.69;;;19.71;nan
38400;BME280;24180;42.676;23.320;2023-07-24T04:07:55;95307.63;;;19.70;nan
38400;BME280;24180;42.676;23.320;2023-07-24T04:10:20;95280.19;;;19.71;nan
38400;BME280;24180;42.676;23.320;2023-07-24T04:12:46;95285.69;;;19.69;nan
38400;BME280;24180;42.676;23.320;2023-07-24T04:15:11;95283.31;;;19.74;nan
38400;BME280;24180;42.676;23.320;2023-07-24T04:17:36;95282.97;;;19.77;nan
38400;BME280;24180;42.676;23.320;2023-07-24T04:20:04;95289.72;;;19.80;nan
38400;BME280;24180;42.676;23.320;2023-07-24T04:22:30;95268.81;;;19.70;nan
38400;BME280;24180;42.676;23.320;2023-07-24T04:24:55;95282.44;;;19.82;nan
38400;BME280;24180;42.676;23.320;2023-07-24T04:27:21;95297.31;;;19.83;nan
38400;BME280;24180;42.676;23.320;2023-07-24T04:29:46;95290.00;;;19.93;nan
38400;BME280;24180;42.676;23.320;2023-07-24T04:32:12;95291.19;;;19.83;nan
38400;BME280;24180;42.676;23.320;2023-07-24T04:34:37;95292.34;;;19.88;nan
38400;BME280;24180;42.676;23.320;2023-07-24T04:37:03;95291.09;;;19.99;nan
38400;BME280;24180;42.676;23.320;2023-07-24T04:39:28;95295.22;;;20.01;nan
38400;BME280;24180;42.676;23.320;2023-07-24T04:41:54;95254.50;;;19.88;nan
38400;BME280;24180;42.676;23.320;2023-07-24T04:44:19;95291.72;;;20.09;nan
38400;BME280;24180;42.676;23.320;2023-07-24T04:46:44;95273.34;;;20.08;nan
38400;BME280;24180;42.676;23.320;2023-07-24T04:49:10;95271.59;;;20.00;nan
38400;BME280;24180;42.676;23.320;2023-07-24T04:51:35;95306.50;;;20.18;nan
38400;BME280;24180;42.676;23.320;2023-07-24T04:54:00;95308.41;;;20.10;nan
38400;BME280;24180;42.676;23.320;2023-07-24T04:56:26;95284.72;;;20.16;nan
38400;BME280;24180;42.676;23.320;2023-07-24T04:58:52;60219.22;;;24.19;nan
38400;BME280;24180;42.676;23.320;2023-07-24T05:01:17;95292.97;;;20.36;nan
38400;BME280;24180;42.676;23.320;2023-07-24T05:03:42;95307.97;;;20.44;nan
38400;BME280;24180;42.676;23.320;2023-07-24T05:06:08;95295.56;;;20.44;nan
38400;BME280;24180;42.676;23.320;2023-07-24T05:08:33;95274.63;;;20.35;nan
38400;BME280;24180;42.676;23.320;2023-07-24T05:10:59;95316.53;;;20.46;nan
38400;BME280;24180;42.676;23.320;2023-07-24T05:13:25;95274.28;;;20.38;nan
38400;BME280;24180;42.676;23.320;2023-07-24T05:15:51;95307.06;;;20.51;nan
38400;BME280;24180;42.676;23.320;2023-07-24T05:18:16;95305.09;;;20.53;nan
38400;BME280;24180;42.676;23.320;2023-07-24T05:20:45;95284.16;;;20.44;nan
38400;BME280;24180;42.676;23.320;2023-07-24T05:23:16;95291.25;;;20.66;nan
38400;BME280;24180;42.676;23.320;2023-07-24T05:25:42;95280.00;;;20.64;nan
38400;BME280;24180;42.676;23.320;2023-07-24T05:28:08;95300.56;;;20.62;nan
38400;BME280;24180;42.676;23.320;2023-07-24T05:30:33;95283.25;;;20.74;nan
38400;BME280;24180;42.676;23.320;2023-07-24T05:32:59;95286.91;;;20.88;nan
38400;BME280;24180;42.676;23.320;2023-07-24T05:35:24;95295.88;;;21.02;nan
38400;BME280;24180;42.676;23.320;2023-07-24T05:37:50;95288.28;;;21.14;nan
38400;BME280;24180;42.676;23.320;2023-07-24T05:40:15;95299.44;;;21.24;nan
38400;BME280;24180;42.676;23.320;2023-07-24T05:42:40;95292.78;;;21.28;nan
38400;BME280;24180;42.676;23.320;2023-07-24T05:45:09;95278.09;;;21.25;nan
38400;BME280;24180;42.676;23.320;2023-07-24T05:47:34;95282.56;;;21.54;nan
38400;BME280;24180;42.676;23.320;2023-07-24T05:50:00;95274.06;;;21.59;nan
38400;BME280;24180;42.676;23.320;2023-07-24T05:52:25;95284.63;;;21.74;nan
38400;BME280;24180;42.676;23.320;2023-07-24T05:54:51;95262.72;;;21.65;nan
38400;BME280;24180;42.676;23.320;2023-07-24T05:57:16;95275.19;;;21.86;nan
38400;BME280;24180;42.676;23.320;2023-07-24T05:59:41;95280.44;;;22.01;nan
38400;BME280;24180;42.676;23.320;2023-07-24T06:02:07;95284.66;;;22.10;nan
38400;BME280;24180;42.676;23.320;2023-07-24T06:04:33;95301.72;;;22.22;nan
38400;BME280;24180;42.676;23.320;2023-07-24T06:06:59;95257.28;;;22.24;nan
38400;BME280;24180;42.676;23.320;2023-07-24T06:09:24;95222.09;;;22.16;nan
38400;BME280;24180;42.676;23.320;2023-07-24T06:11:50;95294.06;;;22.49;nan
38400;BME280;24180;42.676;23.320;2023-07-24T06:14:15;95282.94;;;22.60;nan
38400;BME280;24180;42.676;23.320;2023-07-24T06:16:40;95286.53;;;22.74;nan
38400;BME280;24180;42.676;23.320;2023-07-24T06:19:06;95289.25;;;22.80;nan
38400;BME280;24180;42.676;23.320;2023-07-24T06:21:31;95266.50;;;22.93;nan
38400;BME280;24180;42.676;23.320;2023-07-24T06:23:57;95291.25;;;23.21;nan
38400;BME280;24180;42.676;23.320;2023-07-24T06:26:22;95252.34;;;23.13;nan
38400;BME280;24180;42.676;23.320;2023-07-24T06:28:47;95258.47;;;23.14;nan
38400;BME280;24180;42.676;23.320;2023-07-24T06:31:13;95300.94;;;23.35;nan
38400;BME280;24180;42.676;23.320;2023-07-24T06:33:38;95271.53;;;23.37;nan
38400;BME280;24180;42.676;23.320;2023-07-24T06:36:04;95256.56;;;23.29;nan
38400;BME280;24180;42.676;23.320;2023-07-24T06:38:33;95275.03;;;23.29;nan
38400;BME280;24180;42.676;23.320;2023-07-24T06:40:59;95260.78;;;23.52;nan
38400;BME280;24180;42.676;23.320;2023-07-24T06:43:24;95282.16;;;23.65;nan
38400;BME280;24180;42.676;23.320;2023-07-24T06:45:49;95285.19;;;23.62;nan
38400;BME280;24180;42.676;23.320;2023-07-24T06:48:15;95274.56;;;23.62;nan
38400;BME280;24180;42.676;23.320;2023-07-24T06:50:40;95276.03;;;23.62;nan
38400;BME280;24180;42.676;23.320;2023-07-24T06:53:06;95266.47;;;23.77;nan
38400;BME280;24180;42.676;23.320;2023-07-24T06:55:31;95255.59;;;23.72;nan
38400;BME280;24180;42.676;23.320;2023-07-24T06:57:57;95287.00;;;23.90;nan
38400;BME280;24180;42.676;23.320;2023-07-24T07:00:22;95290.91;;;23.94;nan
38400;BME280;24180;42.676;23.320;2023-07-24T07:02:48;95266.97;;;24.00;nan
38400;BME280;24180;42.676;23.320;2023-07-24T07:05:13;95260.53;;;24.16;nan
38400;BME280;24180;42.676;23.320;2023-07-24T07:07:38;95277.47;;;24.15;nan
38400;BME280;24180;42.676;23.320;2023-07-24T07:10:05;95277.47;;;24.15;nan
38400;BME280;24180;42.676;23.320;2023-07-24T07:12:30;95283.69;;;24.22;nan
38400;BME280;24180;42.676;23.320;2023-07-24T07:14:56;95292.72;;;24.28;nan
38400;BME280;24180;42.676;23.320;2023-07-24T07:17:21;60219.72;;;24.19;nan
38400;BME280;24180;42.676;23.320;2023-07-24T07:19:47;95266.34;;;24.40;nan
38400;BME280;24180;42.676;23.320;2023-07-24T07:22:12;95280.09;;;24.56;nan
38400;BME280;24180;42.676;23.320;2023-07-24T07:24:37;95293.69;;;25.87;nan
38400;BME280;24180;42.676;23.320;2023-07-24T07:27:03;95284.06;;;24.80;nan
38400;BME280;24180;42.676;23.320;2023-07-24T07:29:29;95271.78;;;24.80;nan
38400;BME280;24180;42.676;23.320;2023-07-24T07:31:56;95262.19;;;24.94;nan
38400;BME280;24180;42.676;23.320;2023-07-24T07:34:21;95267.50;;;24.98;nan
38400;BME280;24180;42.676;23.320;2023-07-24T07:36:47;95247.63;;;24.98;nan
38400;BME280;24180;42.676;23.320;2023-07-24T07:39:12;95237.63;;;25.02;nan
38400;BME280;24180;42.676;23.320;2023-07-24T07:41:38;95258.94;;;25.03;nan
38400;BME280;24180;42.676;23.320;2023-07-24T07:44:03;95265.09;;;25.29;nan
38400;BME280;24180;42.676;23.320;2023-07-24T07:46:29;95243.13;;;25.43;nan
38400;BME280;24180;42.676;23.320;2023-07-24T07:48:54;95260.97;;;25.61;nan
38400;BME280;24180;42.676;23.320;2023-07-24T07:51:19;95267.72;;;25.80;nan
38400;BME280;24180;42.676;23.320;2023-07-24T07:53:45;95278.00;;;25.99;nan
38400;BME280;24180;42.676;23.320;2023-07-24T07:56:10;95250.88;;;25.99;nan
38400;BME280;24180;42.676;23.320;2023-07-24T07:58:36;95276.06;;;26.09;nan
38400;BME280;24180;42.676;23.320;2023-07-24T08:01:05;95258.31;;;26.33;nan
38400;BME280;24180;42.676;23.320;2023-07-24T08:03:31;60219.72;;;24.19;nan
38400;BME280;24180;42.676;23.320;2023-07-24T08:05:57;95260.19;;;26.58;nan
38400;BME280;24180;42.676;23.320;2023-07-24T08:08:23;95264.88;;;26.58;nan
38400;BME280;24180;42.676;23.320;2023-07-24T08:10:48;95273.69;;;26.69;100.00
38400;BME280;24180;42.676;23.320;2023-07-24T08:13:14;95263.97;;;26.70;nan
38400;BME280;24180;42.676;23.320;2023-07-24T08:15:39;95268.50;;;26.96;nan
38400;BME280;24180;42.676;23.320;2023-07-24T08:18:06;95266.50;;;27.09;nan
38400;BME280;24180;42.676;23.320;2023-07-24T08:20:34;95256.28;;;27.09;100.00
38400;BME280;24180;42.676;23.320;2023-07-24T08:23:00;95265.13;;;26.99;nan
38400;BME280;24180;42.676;23.320;2023-07-24T08:25:25;95238.00;;;27.00;nan
38400;BME280;24180;42.676;23.320;2023-07-24T08:27:51;60218.16;;;24.20;nan
38400;BME280;24180;42.676;23.320;2023-07-24T08:30:17;95224.50;;;24.51;nan
38400;BME280;24180;42.676;23.320;2023-07-24T08:32:43;95233.47;;;27.16;nan
38400;BME280;24180;42.676;23.320;2023-07-24T08:35:08;60220.63;;;24.20;100.00
38400;BME280;24180;42.676;23.320;2023-07-24T08:37:34;95232.56;;;24.51;nan
38400;BME280;24180;42.676;23.320;2023-07-24T08:40:00;95232.81;;;27.73;100.00
38400;BME280;24180;42.676;23.320;2023-07-24T08:42:25;95238.00;;;27.89;nan
38400;BME280;24180;42.676;23.320;2023-07-24T08:44:52;95234.09;;;28.09;100.00
38400;BME280;24180;42.676;23.320;2023-07-24T08:47:19;95225.66;;;28.30;100.00
38400;BME280;24180;42.676;23.320;2023-07-24T08:49:46;95230.19;;;28.52;nan
38400;BME280;24180;42.676;23.320;2023-07-24T08:52:12;95222.13;;;28.70;nan
38400;BME280;24180;42.676;23.320;2023-07-24T08:54:39;60218.00;;;24.20;100.00
38400;BME280;24180;42.676;23.320;2023-07-24T08:57:07;95224.81;;;24.51;100.00
38400;BME280;24180;42.676;23.320;2023-07-24T08:59:34;60218.00;;;24.20;100.00
38400;BME280;24180;42.676;23.320;2023-07-24T09:01:59;95227.72;;;28.87;100.00
38400;BME280;24180;42.676;23.320;2023-07-24T09:04:26;95214.84;;;28.87;100.00
38400;BME280;24180;42.676;23.320;2023-07-24T09:06:52;60218.00;;;24.19;100.00
38400;BME280;24180;42.676;23.320;2023-07-24T09:09:18;95220.31;;;24.51;100.00
38400;BME280;24180;42.676;23.320;2023-07-24T09:11:50;95213.25;;;29.19;100.00
38400;BME280;24180;42.676;23.320;2023-07-24T09:14:23;95204.56;;;29.25;100.00
38400;BME280;24180;42.676;23.320;2023-07-24T09:16:49;95199.41;;;29.22;100.00
38400;BME280;24180;42.676;23.320;2023-07-24T09:19:19;60218.00;;;24.20;100.00
38400;BME280;24180;42.676;23.320;2023-07-24T09:21:44;60218.00;;;24.20;100.00
38400;BME280;24180;42.676;23.320;2023-07-24T09:24:14;95231.31;;;24.51;100.00
38400;BME280;24180;42.676;23.320;2023-07-24T09:26:48;95179.06;;;29.29;100.00
38400;BME280;24180;42.676;23.320;2023-07-24T09:29:13;95189.00;;;29.20;100.00
38400;BME280;24180;42.676;23.320;2023-07-24T09:31:39;95197.31;;;29.31;100.00
38400;BME280;24180;42.676;23.320;2023-07-24T09:34:13;95197.31;;;29.41;100.00
38400;BME280;24180;42.676;23.320;2023-07-24T09:36:39;95197.91;;;29.72;100.00
38400;BME280;24180;42.676;23.320;2023-07-24T09:39:05;95181.44;;;29.85;100.00
38400;BME280;24180;42.676;23.320;2023-07-24T09:41:31;95188.34;;;29.82;100.00
38400;BME280;24180;42.676;23.320;2023-07-24T09:43:59;95152.81;;;29.89;100.00
38400;BME280;24180;42.676;23.320;2023-07-24T09:46:26;95178.56;;;29.64;100.00
38400;BME280;24180;42.676;23.320;2023-07-24T09:48:52;95156.00;;;30.07;100.00
38400;BME280;24180;42.676;23.320;2023-07-24T09:51:17;95166.53;;;29.96;100.00
38400;BME280;24180;42.676;23.320;2023-07-24T09:53:47;95145.03;;;30.14;100.00
38400;BME280;24180;42.676;23.320;2023-07-24T09:56:17;95156.28;;;29.98;100.00
38400;BME280;24180;42.676;23.320;2023-07-24T09:58:44;95161.63;;;30.06;100.00
38400;BME280;24180;42.676;23.320;2023-07-24T10:01:10;95149.09;;;30.00;100.00
38400;BME280;24180;42.676;23.320;2023-07-24T10:03:39;95135.59;;;30.13;100.00
38400;BME280;24180;42.676;23.320;2023-07-24T10:06:05;60220.13;;;24.22;100.00
38400;BME280;24180;42.676;23.320;2023-07-24T10:08:31;95155.00;;;24.84;100.00
38400;BME280;24180;42.676;23.320;2023-07-24T10:10:58;95129.16;;;30.85;100.00
38400;BME280;24180;42.676;23.320;2023-07-24T10:13:26;95127.00;;;30.95;100.00
38400;BME280;24180;42.676;23.320;2023-07-24T10:15:52;95128.72;;;31.09;100.00
38400;BME280;24180;42.676;23.320;2023-07-24T10:18:26;95127.28;;;31.27;100.00
38400;BME280;24180;42.676;23.320;2023-07-24T10:21:03;95134.56;;;31.82;100.00
38400;BME280;24180;42.676;23.320;2023-07-24T10:23:29;60214.53;;;24.22;100.00
38400;BME280;24180;42.676;23.320;2023-07-24T10:25:55;95147.75;;;26.14;100.00
38400;BME280;24180;42.676;23.320;2023-07-24T10:28:30;95137.34;;;35.19;100.00
38400;BME280;24180;42.676;23.320;2023-07-24T10:30:56;94774.78;;;38.64;100.00
38400;BME280;24180;42.676;23.320;2023-07-24T10:33:24;60213.88;;;24.22;100.00
38400;BME280;24180;42.676;23.320;2023-07-24T10:35:54;60214.53;;;24.22;100.00
38400;BME280;24180;42.676;23.320;2023-07-24T10:38:33;60214.53;;;24.22;100.00
38400;BME280;24180;42.676;23.320;2023-07-24T10:41:04;60218.00;;;24.20;100.00
38400;BME280;24180;42.676;23.320;2023-07-24T10:46:08;60217.66;;;24.20;100.00
38400;BME280;24180;42.676;23.320;2023-07-24T10:48:34;60218.00;;;24.20;100.00
38400;BME280;24180;42.676;23.320;2023-07-24T10:51:06;60220.13;;;24.20;100.00
38400;BME280;24180;42.676;23.320;2023-07-24T10:53:35;60218.00;;;24.22;100.00
38400;BME280;24180;42.676;23.320;2023-07-24T10:56:01;60218.00;;;24.20;100.00
38400;BME280;24180;42.676;23.320;2023-07-24T10:58:27;60218.00;;;24.20;100.00
38400;BME280;24180;42.676;23.320;2023-07-24T11:00:52;60218.00;;;24.22;100.00
38400;BME280;24180;42.676;23.320;2023-07-24T11:03:19;60218.00;;;24.20;100.00
38400;BME280;24180;42.676;23.320;2023-07-24T11:05:46;60218.00;;;24.20;100.00
38400;BME280;24180;42.676;23.320;2023-07-24T11:08:12;60218.00;;;24.20;100.00
38400;BME280;24180;42.676;23.320;2023-07-24T11:10:59;60218.00;;;24.20;100.00
38400;BME280;24180;42.676;23.320;2023-07-24T11:13:28;60218.00;;;24.20;100.00
38400;BME280;24180;42.676;23.320;2023-07-24T11:15:54;60201.91;;;24.20;100.00
38400;BME280;24180;42.676;23.320;2023-07-24T11:18:21;60212.75;;;24.22;100.00
38400;BME280;24180;42.676;23.320;2023-07-24T11:20:51;60218.00;;;24.20;100.00
38400;BME280;24180;42.676;23.320;2023-07-24T11:23:18;60220.13;;;24.20;100.00
38400;BME280;24180;42.676;23.320;2023-07-24T11:25:44;60218.00;;;24.20;100.00
38400;BME280;24180;42.676;23.320;2023-07-24T11:28:12;60214.53;;;24.22;100.00
38400;BME280;24180;42.676;23.320;2023-07-24T11:30:38;60220.13;;;24.20;100.00
38400;BME280;24180;42.676;23.320;2023-07-24T11:33:06;60219.78;;;24.22;100.00
38400;BME280;24180;42.676;23.320;2023-07-24T11:35:33;60214.53;;;24.22;100.00
38400;BME280;24180;42.676;23.320;2023-07-24T11:37:59;60218.00;;;24.20;100.00
38400;BME280;24180;42.676;23.320;2023-07-24T11:40:32;60216.59;;;24.20;100.00
38400;BME280;24180;42.676;23.320;2023-07-24T11:42:58;60220.78;;;24.20;nan
38400;BME280;24180;42.676;23.320;2023-07-24T11:45:24;60220.78;;;24.20;nan
38400;BME280;24180;42.676;23.320;2023-07-24T11:47:50;60218.00;;;24.20;100.00
38400;BME280;24180;42.676;23.320;2023-07-24T11:50:17;60218.00;;;24.20;100.00
38400;BME280;24180;42.676;23.320;2023-07-24T11:52:48;60220.63;;;24.20;100.00
38400;BME280;24180;42.676;23.320;2023-07-24T11:55:15;60220.78;;;24.20;nan
38400;BME280;24180;42.676;23.320;2023-07-24T11:57:41;95036.34;;;24.51;nan
38400;BME280;24180;42.676;23.320;2023-07-24T12:00:18;60220.78;;;24.20;nan
38400;BME280;24180;42.676;23.320;2023-07-24T12:02:44;60218.16;;;24.20;nan
38400;BME280;24180;42.676;23.320;2023-07-24T12:05:10;95046.63;;;24.51;100.00
38400;BME280;24180;42.676;23.320;2023-07-24T12:07:36;60218.00;;;24.20;100.00
38400;BME280;24180;42.676;23.320;2023-07-24T12:10:03;60218.00;;;24.20;100.00
38400;BME280;24180;42.676;23.320;2023-07-24T12:12:45;95027.50;;;24.51;nan
38400;BME280;24180;42.676;23.320;2023-07-24T12:15:12;60218.00;;;24.20;100.00
38400;BME280;24180;42.676;23.320;2023-07-24T12:17:38;95059.19;;;25.82;100.00
38400;BME280;24180;42.676;23.320;2023-07-24T12:20:04;60214.88;;;24.22;100.00
38400;BME280;24180;42.676;23.320;2023-07-24T12:22:31;92078.34;;;24.51;100.00
38400;BME280;24180;42.676;23.320;2023-07-24T12:24:57;60218.00;;;24.20;nan
38400;BME280;24180;42.676;23.320;2023-07-24T12:27:23;60218.00;;;24.20;nan
38400;BME280;24180;42.676;23.320;2023-07-24T12:29:50;60220.78;;;24.20;nan
38400;BME280;24180;42.676;23.320;2023-07-24T12:32:16;60218.00;;;24.20;nan
38400;BME280;24180;42.676;23.320;2023-07-24T12:34:41;60218.00;;;24.20;nan
38400;BME280;24180;42.676;23.320;2023-07-24T12:37:06;60219.72;;;24.20;nan
38400;BME280;24180;42.676;23.320;2023-07-24T12:39:32;60220.78;;;24.20;nan
38400;BME280;24180;42.676;23.320;2023-07-24T12:41:57;60219.72;;;24.19;nan
38400;BME280;24180;42.676;23.320;2023-07-24T12:44:22;60220.78;;;24.19;nan
38400;BME280;24180;42.676;23.320;2023-07-24T12:46:48;60220.78;;;24.20;nan
38400;BME280;24180;42.676;23.320;2023-07-24T12:49:14;60218.00;;;24.20;100.00
38400;BME280;24180;42.676;23.320;2023-07-24T12:51:39;60218.00;;;24.20;100.00
38400;BME280;24180;42.676;23.320;2023-07-24T12:54:04;60218.00;;;24.20;100.00
38400;BME280;24180;42.676;23.320;2023-07-24T12:56:30;60218.00;;;24.20;100.00
38400;BME280;24180;42.676;23.320;2023-07-24T12:58:55;60218.00;;;24.20;100.00
38400;BME280;24180;42.676;23.320;2023-07-24T13:01:21;60218.00;;;24.20;100.00
38400;BME280;24180;42.676;23.320;2023-07-24T13:03:46;60218.00;;;24.20;100.00